Maputo, Mozambique

2:56 PM CAT on August 27, 2014 (GMT +0200)
Maputo | Change Station
CLOSE
Current Station
Airport
Location: Maputo,
Elevation: 144 ft
Nearby Weather Stations

Elev 144 ft 25.92 °S, 32.57 °E | Updated 56 minutes ago

Clear
Clear
88 °F
Feels Like 88 °F
N
13
Wind Variable Wind from North

Today
High -- | Low -- °F
--% Chance of Precip.
Yesterday
High -- | Low -- °F
Precip. -- in
6:07 AM 5:35 PM
Waxing Crescent, 3% visible
Pressure 29.95 in
Visibility -9999.0 miles
Clouds
Dew Point 41 °F
Humidity 19%
Rainfall 0.00 in
Snow Depth Not available.
UV Not available.
Pollen Not available.
Air Quality Not available.
Flu Activity Not available.
METAR FQMA 271200Z 01011KT CAVOK 31/05 Q1014 NOSIG

More Conditions Fewer Conditions

Pressure 29.95 in
Visibility -9999.0 miles
Clouds
Dew Point 41 °F
Humidity 19%
Rainfall 0.00 in
Snow Depth Not available.
UV Not available.
Pollen Not available.
Air Quality Not available.
Flu Activity Not available.
METAR FQMA 271200Z 01011KT CAVOK 31/05 Q1014 NOSIG

More Conditions Fewer Conditions

10-Day Weather Forecast

Almanac

Astronomy

Aug. 27, 2014 Rise Set
Actual Time 6:07 AM CAT 5:35 PM CAT
Civil Twilight 5:44 AM CAT 5:58 PM CAT
Nautical Twilight 5:17 AM CAT 6:25 PM CAT
Astronomical Twilight 4:50 AM CAT 6:52 PM CAT
Moon 6:55 AM CAT 7:15 PM CAT
Length of Visible Light 12h 14m
Length of Day
11h 28m
Tomorrow will be 1m 25s longer.
Waxing Crescent, 3% of the Moon is Illuminated
Today
Waxing Crescent
Sep 2
First Quarter
Sep 8
Full
Sep 15
Last Quarter
Sep 24
New

Yesterday's Extremes

Country Highs Country Lows

Community

WunderPhotos

Upload Photos

1,747,676 photos uploaded!

Nearby

Snow Depth

Not available.

Earthquake Activity

City Distance Mag. Time & Date
No recent earthquake activity has been reported nearby.
Minimum magnitude displayed is 2.5.

Coastal Water Temperatures

Place Temperature
No Stations Reporting

Nearby Weather Stations